Portada
METAR-TAF:

METAR-TAF

Aeroports :

Kwajalein, Illes Marshall

latitud: 08-43N, longitud: 167-44E, altitud: 3 m

Observació

L'informe es va fer fa 9 minuts, a les 14:00 UTC
Vent 16 kt del Est/Sud-Est
Temperatura 28°C
Humitat 89%
Pressió 1010 hPa
Visibilitat: 16.1 km
Núvols disperses a una alçada de 1800 ft
Núvols disperses a una alçada de 2700 ft
Cel ennuvolat a una alçada de 5000 ft

METAR: PKWA 171400Z AUTO 11016KT 10SM SCT018 SCT027 BKN050 28/26 A2982 RMK AO2 LTG DSNT N AND W T02830262

Hora: 02:09 (14:09 UTC)

Pronòstic

L'informe es va fer fa 2 hores i 49 minuts, a les 11:20 UTC
Pronòstic vàlid del 17 a les 12 UTC al 18 a les 12 UTC
Vent 14 kt del Est amb ràfegues de 22 kt
Visibilitat: 10 km
Núvols disperses a una alçada de 2000 ft
Núvols disperses a una alçada de 4000 ft
Cel ennuvolat a una alçada de 12000 ft
xàfecs en les proximitats

TAF: PKWA 171120Z 1712/1812 10014G22KT P6SM VCSH SCT020 SCT040 BKN120

Observacions i pronòstics meteorològics de més de 4000 aeroports (METAR i TAF).

Les estacions disponibles són els punts grocs i vermells al mapa.

Posi el ratolí al punt desitjat per veure el nom de l'estació.

Feu clic per veure les observacions i els pronòstics meteorològics.

Per canviar el mapa: feu clic els botons verds amb una creu de color negre per apropar; al botó verd amb un guió per allunyar la imatge; o en les fletxes verdes per a mapes adjacents.


METAR-TAF: